Time;durP1;ratioP1;P1;durP2;ratioP2;P2;SDS_P1;SDS_P2;PMS_P1;PMS_P2;Temp;Humidity;BMP_temperature;BMP_pressure;BME280_temperature;BME280_humidity;BME280_pressure;Samples;Min_cycle;Max_cycle;Signal;HPM_P1;HPM_P2
2021/04/03 00:03:38;;;;;;;26.90;4.72;;;;;;;3.76;77.91;102105.03;10209130;28;20049;-68
2021/04/03 00:08:34;;;;;;;27.67;3.58;;;;;;;3.74;77.69;102102.56;10204282;28;20045;-69
2021/04/03 00:13:34;;;;;;;32.17;5.50;;;;;;;3.66;78.36;102104.81;10211513;28;20465;-68
2021/04/03 00:18:31;;;;;;;29.60;4.90;;;;;;;3.63;79.29;102103.41;10205379;28;20141;-68
2021/04/03 00:23:27;;;;;;;21.00;3.70;;;;;;;3.63;78.31;102100.72;10215191;28;20065;-71
2021/04/03 00:28:24;;;;;;;33.85;5.32;;;;;;;3.60;78.70;102101.19;10217832;28;20399;-69
2021/04/03 00:33:20;;;;;;;30.30;4.53;;;;;;;3.53;79.09;102108.63;10201075;28;20045;-68
2021/04/03 00:38:16;;;;;;;26.73;4.28;;;;;;;3.46;79.62;102116.84;10206817;28;20099;-70
2021/04/03 00:43:23;;;;;;;30.95;4.45;;;;;;;3.42;79.54;102115.66;10207655;28;20052;-67
2021/04/03 00:48:19;;;;;;;26.33;4.28;;;;;;;3.39;79.76;102124.25;10216364;28;20052;-69
2021/04/03 00:53:18;;;;;;;33.17;4.68;;;;;;;3.34;79.59;102129.50;10210551;28;20508;-69
2021/04/03 00:58:16;;;;;;;33.80;4.28;;;;;;;3.35;79.98;102128.47;10210882;28;20522;-69
2021/04/03 01:03:12;;;;;;;26.48;4.22;;;;;;;3.34;80.26;102129.50;10203373;28;20041;-67
2021/04/03 01:08:11;;;;;;;23.20;3.65;;;;;;;3.31;80.06;102119.19;10216876;28;20515;-67
2021/04/03 01:13:25;;;;;;;38.58;5.70;;;;;;;3.26;80.13;102127.19;10207908;28;20046;-69
2021/04/03 01:18:37;;;;;;;24.65;4.25;;;;;;;3.21;79.46;102127.88;10212818;28;20079;-69
2021/04/03 01:24:06;;;;;;;32.75;3.95;;;;;;;3.33;80.07;102138.69;10211542;28;20089;-68
2021/04/03 01:29:36;;;;;;;29.88;4.80;;;;;;;3.20;79.76;102137.03;10211012;28;20041;-68
2021/04/03 01:34:38;;;;;;;32.10;5.78;;;;;;;3.13;80.16;102147.97;10218586;28;20442;-69
2021/04/03 01:39:36;;;;;;;29.20;5.07;;;;;;;3.11;80.35;102147.38;10219748;28;20046;-69
2021/04/03 01:44:38;;;;;;;27.55;4.38;;;;;;;3.15;80.43;102148.53;10224206;28;20038;-67
2021/04/03 01:49:35;;;;;;;36.92;4.95;;;;;;;3.14;80.04;102155.00;10219168;28;20038;-70
2021/04/03 01:54:33;;;;;;;36.38;5.10;;;;;;;3.12;80.22;102159.81;10219058;28;20580;-69
2021/04/03 01:59:29;;;;;;;27.90;4.65;;;;;;;2.96;80.72;102165.91;10209358;28;20698;-67
2021/04/03 02:04:25;;;;;;;39.83;5.88;;;;;;;3.06;80.24;102165.31;10227287;28;20042;-66
2021/04/03 02:09:23;;;;;;;31.98;5.88;;;;;;;2.99;80.81;102164.59;10224582;28;20095;-66
2021/04/03 02:14:21;;;;;;;38.05;5.85;;;;;;;2.87;81.11;102168.09;10210166;28;20049;-67
2021/04/03 02:19:18;;;;;;;36.28;5.82;;;;;;;2.76;81.33;102166.19;10213448;28;20096;-66
2021/04/03 02:24:15;;;;;;;33.25;5.70;;;;;;;2.82;80.85;102169.84;10222768;28;20053;-66
2021/04/03 02:29:11;;;;;;;30.35;5.07;;;;;;;2.82;80.87;102169.84;10215604;28;20100;-68
2021/04/03 02:34:07;;;;;;;32.88;4.55;;;;;;;2.80;80.75;102171.97;10216042;28;20051;-70
2021/04/03 02:39:03;;;;;;;34.70;5.07;;;;;;;2.70;81.21;102167.94;10213311;28;20046;-66
2021/04/03 02:44:17;;;;;;;33.17;5.35;;;;;;;2.72;81.25;102165.03;10220386;28;20058;-69
2021/04/03 02:49:20;;;;;;;26.05;4.47;;;;;;;2.64;81.27;102174.25;10216540;28;20099;-69
2021/04/03 02:54:18;;;;;;;23.20;4.43;;;;;;;2.64;81.52;102193.16;10219411;28;20076;-69
2021/04/03 02:59:23;;;;;;;26.92;5.80;;;;;;;2.62;81.18;102187.19;10210778;28;20103;-69
2021/04/03 03:04:20;;;;;;;27.27;4.80;;;;;;;2.61;80.98;102190.91;10208533;28;20504;-69
2021/04/03 03:09:19;;;;;;;25.08;3.95;;;;;;;2.56;80.93;102193.47;10210819;28;20065;-70
2021/04/03 03:14:16;;;;;;;24.52;4.45;;;;;;;2.51;80.91;102190.66;10210755;28;20463;-70
2021/04/03 03:19:14;;;;;;;22.38;4.43;;;;;;;2.47;81.34;102200.25;10215676;28;20092;-69
2021/04/03 03:24:11;;;;;;;22.67;4.80;;;;;;;2.53;80.80;102200.16;10223337;28;20069;-68
2021/04/03 03:29:12;;;;;;;26.45;4.47;;;;;;;2.23;81.25;102202.81;10217080;28;20053;-69
2021/04/03 03:34:09;;;;;;;27.42;5.05;;;;;;;2.40;81.12;102199.50;10209533;28;20092;-68
2021/04/03 03:39:06;;;;;;;29.85;5.50;;;;;;;2.42;80.92;102208.22;10209792;28;20041;-68
2021/04/03 03:44:04;;;;;;;29.02;4.45;;;;;;;2.31;80.79;102212.47;10222307;28;20466;-69
2021/04/03 03:49:01;;;;;;;27.83;5.13;;;;;;;2.28;80.88;102213.75;10209982;28;20504;-69
2021/04/03 03:53:57;;;;;;;21.90;5.35;;;;;;;2.23;80.71;102237.09;10214681;28;20046;-69
2021/04/03 03:58:53;;;;;;;30.45;5.85;;;;;;;2.19;81.08;102230.47;10209258;28;20096;-68
2021/04/03 04:03:49;;;;;;;22.02;4.88;;;;;;;2.14;81.08;102238.44;10211689;28;20058;-68
2021/04/03 04:08:45;;;;;;;24.15;4.53;;;;;;;2.14;80.85;102239.25;10212828;28;20108;-69
2021/04/03 04:13:41;;;;;;;23.95;4.78;;;;;;;2.10;81.31;102243.44;10207806;28;20042;-69
2021/04/03 04:18:37;;;;;;;25.75;4.60;;;;;;;2.08;81.15;102250.94;10215834;28;20049;-69
2021/04/03 04:23:33;;;;;;;18.33;4.10;;;;;;;2.12;80.64;102251.31;10208878;28;20084;-66
2021/04/03 04:28:30;;;;;;;23.75;4.20;;;;;;;2.19;80.54;102260.16;10214150;28;20488;-67
2021/04/03 04:33:26;;;;;;;24.75;4.82;;;;;;;2.11;80.51;102261.25;10220282;28;20049;-67
2021/04/03 04:38:23;;;;;;;26.98;5.75;;;;;;;2.07;80.51;102251.97;10212588;28;20053;-70
2021/04/03 04:43:20;;;;;;;25.98;5.80;;;;;;;2.07;80.26;102258.19;10213676;28;20108;-69
2021/04/03 04:48:16;;;;;;;20.42;5.47;;;;;;;2.04;80.59;102257.81;10206807;28;20056;-69
2021/04/03 04:53:13;;;;;;;19.77;4.28;;;;;;;2.07;80.44;102273.56;10214768;28;20048;-67
2021/04/03 04:58:09;;;;;;;19.88;4.30;;;;;;;2.00;79.99;102270.13;10218863;28;20042;-67
2021/04/03 05:03:05;;;;;;;19.77;5.05;;;;;;;2.07;80.19;102282.47;10205752;28;20050;-69
2021/04/03 05:08:01;;;;;;;23.58;5.63;;;;;;;1.98;80.53;102293.78;10205227;28;20093;-68
2021/04/03 05:13:01;;;;;;;26.73;5.60;;;;;;;2.01;80.47;102304.13;10218209;28;20565;-68
2021/04/03 05:17:57;;;;;;;22.92;4.82;;;;;;;1.89;81.34;102307.53;10213829;28;20045;-69
2021/04/03 05:22:53;;;;;;;19.65;4.68;;;;;;;1.88;80.78;102322.09;10212250;28;20050;-71
2021/04/03 05:27:49;;;;;;;21.85;5.55;;;;;;;1.93;80.82;102317.88;10220277;28;20057;-69
2021/04/03 05:32:45;;;;;;;23.15;5.03;;;;;;;1.87;81.14;102325.81;10211978;28;20104;-68
2021/04/03 05:37:41;;;;;;;23.00;5.45;;;;;;;2.06;80.81;102333.97;10210611;28;20056;-69
2021/04/03 05:42:38;;;;;;;22.67;5.13;;;;;;;2.03;80.44;102346.03;10204221;28;20133;-69
2021/04/03 05:47:35;;;;;;;13.75;4.60;;;;;;;2.09;80.54;102344.34;10215985;28;20041;-70
2021/04/03 05:52:33;;;;;;;21.63;4.70;;;;;;;2.10;80.52;102340.56;10217705;28;20049;-69
2021/04/03 05:57:30;;;;;;;15.95;4.68;;;;;;;2.11;80.49;102353.00;10204003;28;20053;-69
2021/04/03 06:02:26;;;;;;;22.50;6.07;;;;;;;2.21;80.46;102357.94;10214356;28;20458;-68
2021/04/03 06:07:22;;;;;;;22.05;5.38;;;;;;;2.29;79.85;102371.13;10211737;28;20061;-68
2021/04/03 06:12:40;;;;;;;15.18;4.13;;;;;;;2.35;80.53;102372.13;10215108;28;20507;-68
2021/04/03 06:17:36;;;;;;;19.08;5.25;;;;;;;2.45;80.03;102385.94;10208733;28;20468;-67
2021/04/03 06:22:46;;;;;;;16.08;4.82;;;;;;;2.60;80.04;102389.13;10216863;28;20049;-70
2021/04/03 06:27:42;;;;;;;17.63;5.15;;;;;;;2.68;79.86;102396.09;10222426;28;20137;-70
2021/04/03 06:32:38;;;;;;;16.67;4.47;;;;;;;2.76;79.35;102397.66;10222970;28;20418;-70
2021/04/03 06:37:36;;;;;;;16.25;4.70;;;;;;;2.86;79.02;102403.38;10221989;28;20541;-71
2021/04/03 06:42:43;;;;;;;17.70;4.97;;;;;;;2.99;78.70;102408.63;10215809;28;20453;-68
2021/04/03 06:47:48;;;;;;;13.70;4.60;;;;;;;3.10;79.42;102410.56;10220497;28;20479;-71
2021/04/03 06:52:45;;;;;;;12.43;3.70;;;;;;;3.24;78.67;102415.81;10221234;28;20069;-71
2021/04/03 06:57:43;;;;;;;15.90;5.00;;;;;;;3.42;77.64;102414.97;10223997;28;20132;-71
2021/04/03 07:02:47;;;;;;;10.18;3.53;;;;;;;3.54;77.77;102427.50;10221285;28;20041;-69
2021/04/03 07:07:44;;;;;;;11.35;3.45;;;;;;;3.68;76.74;102430.03;10217483;28;20141;-69
2021/04/03 07:12:41;;;;;;;10.07;3.08;;;;;;;3.78;75.30;102436.53;10224143;28;20052;-70
2021/04/03 07:17:41;;;;;;;15.55;3.60;;;;;;;3.92;74.25;102437.19;10214518;28;20105;-70
2021/04/03 07:22:41;;;;;;;12.40;2.83;;;;;;;4.06;72.64;102432.38;10225444;28;20078;-69
2021/04/03 07:27:42;;;;;;;7.82;2.67;;;;;;;4.17;72.79;102436.16;10220352;28;20088;-70
2021/04/03 07:32:44;;;;;;;6.50;2.50;;;;;;;4.30;73.58;102440.56;10218254;28;20091;-68
2021/04/03 07:37:41;;;;;;;6.15;1.92;;;;;;;4.46;69.13;102442.56;10220298;28;20676;-67
2021/04/03 07:42:39;;;;;;;6.68;1.50;;;;;;;4.64;67.36;102441.59;10218186;28;20068;-67
2021/04/03 07:47:47;;;;;;;5.85;1.90;;;;;;;4.83;66.18;102445.88;10219601;28;20053;-67
2021/04/03 07:52:54;;;;;;;4.88;1.23;;;;;;;5.02;63.21;102443.84;10216108;28;20049;-67
2021/04/03 07:57:50;;;;;;;4.28;1.00;;;;;;;5.20;66.74;102448.28;10215432;28;20639;-68
2021/04/03 08:02:46;;;;;;;4.95;1.00;;;;;;;5.37;61.91;102450.25;10220103;28;20203;-68
2021/04/03 08:07:42;;;;;;;4.25;0.80;;;;;;;5.63;55.29;102460.53;10219654;28;20547;-67
2021/04/03 08:12:38;;;;;;;5.28;1.05;;;;;;;5.83;53.49;102459.28;10223071;28;20099;-68
2021/04/03 08:17:35;;;;;;;4.10;1.33;;;;;;;5.91;58.57;102456.97;10217057;28;20051;-67
2021/04/03 08:22:31;;;;;;;3.92;0.88;;;;;;;6.03;54.77;102470.53;10217719;28;20053;-69
2021/04/03 08:27:32;;;;;;;3.17;0.55;;;;;;;6.13;64.03;102471.78;10220802;28;20045;-69
2021/04/03 08:32:28;;;;;;;2.97;0.80;;;;;;;6.33;46.91;102474.84;10208861;28;20085;-68
2021/04/03 08:37:25;;;;;;;5.13;0.60;;;;;;;6.48;48.38;102472.38;10214549;28;20053;-67
2021/04/03 08:42:21;;;;;;;3.70;0.93;;;;;;;6.71;45.84;102486.88;10216978;28;20573;-70
2021/04/03 08:47:19;;;;;;;3.80;1.00;;;;;;;6.94;46.87;102475.81;10212883;28;20057;-67
2021/04/03 08:52:15;;;;;;;4.03;0.88;;;;;;;7.11;45.32;102481.19;10219068;28;20099;-67
2021/04/03 08:57:29;;;;;;;4.00;0.77;;;;;;;7.34;46.21;102485.59;10219621;28;20416;-69
2021/04/03 09:02:25;;;;;;;;;;;;;;;7.33;51.08;102486.69;10216660;28;20101;-67
2021/04/03 09:07:34;;;;;;;7.03;1.52;;;;;;;7.63;45.33;102485.38;10218594;28;20303;-68
2021/04/03 09:12:30;;;;;;;4.35;0.75;;;;;;;7.76;42.75;102487.72;10216785;28;20060;-67
2021/04/03 09:17:27;;;;;;;3.85;0.90;;;;;;;7.86;44.24;102475.28;10215181;28;20057;-68
2021/04/03 09:22:23;;;;;;;4.07;0.82;;;;;;;8.02;42.68;102486.06;10212653;28;20613;-68
2021/04/03 09:27:20;;;;;;;3.10;1.38;;;;;;;8.19;41.67;102488.72;10212365;28;20080;-67
2021/04/03 09:32:17;;;;;;;3.40;0.70;;;;;;;8.26;41.77;102479.47;10222499;28;20096;-68
2021/04/03 09:37:23;;;;;;;4.13;1.10;;;;;;;8.40;42.55;102476.13;10222257;28;20461;-70
2021/04/03 09:42:22;;;;;;;4.28;1.30;;;;;;;8.49;41.12;102470.97;10220780;28;20126;-67
2021/04/03 09:47:18;;;;;;;3.97;1.13;;;;;;;8.77;42.12;102474.44;10224493;28;20049;-67
2021/04/03 09:52:16;;;;;;;4.93;1.05;;;;;;;8.97;40.94;102471.84;10218551;28;20053;-67
2021/04/03 09:57:13;;;;;;;4.43;1.00;;;;;;;9.22;39.53;102464.91;10220224;28;20772;-68
2021/04/03 10:02:13;;;;;;;3.58;0.90;;;;;;;9.34;39.10;102468.22;10220393;28;20045;-70
2021/04/03 10:07:09;;;;;;;4.18;1.13;;;;;;;9.66;38.31;102480.91;10219988;28;20143;-67
2021/04/03 10:12:06;;;;;;;3.38;0.90;;;;;;;9.83;38.99;102467.81;10224240;28;20099;-66
2021/04/03 10:17:02;;;;;;;4.40;1.15;;;;;;;10.22;37.51;102483.75;10224608;28;20053;-67
2021/04/03 10:21:58;;;;;;;4.30;0.85;;;;;;;10.51;37.15;102485.97;10222596;28;20132;-67
2021/04/03 10:26:54;;;;;;;5.38;1.38;;;;;;;10.64;34.85;102488.16;10221576;28;20094;-68
2021/04/03 10:31:50;;;;;;;2.47;0.75;;;;;;;10.62;35.03;102487.59;10220664;28;20348;-68
2021/04/03 10:36:46;;;;;;;3.70;1.15;;;;;;;11.74;34.86;102480.13;10224552;28;20148;-68
2021/04/03 10:41:42;;;;;;;5.05;0.90;;;;;;;11.71;32.97;102491.66;10217608;28;20053;-68
2021/04/03 10:46:38;;;;;;;7.10;1.67;;;;;;;12.41;34.19;102484.06;10224605;28;20056;-66
2021/04/03 10:51:34;;;;;;;4.35;0.85;;;;;;;13.36;33.92;102486.44;10223110;28;21012;-66
2021/04/03 10:56:30;;;;;;;4.72;1.20;;;;;;;13.36;32.33;102481.75;10224840;28;20093;-67
2021/04/03 11:01:26;;;;;;;3.50;1.10;;;;;;;13.02;32.67;102481.88;10224369;28;20056;-71
2021/04/03 11:06:22;;;;;;;4.22;1.20;;;;;;;13.11;33.19;102485.59;10214443;28;20197;-67
2021/04/03 11:11:18;;;;;;;3.90;1.10;;;;;;;13.14;31.80;102474.03;10209010;28;20051;-67
2021/04/03 11:16:14;;;;;;;3.50;0.88;;;;;;;13.82;32.80;102477.59;10201946;28;20050;-67
2021/04/03 11:21:10;;;;;;;5.82;1.75;;;;;;;13.70;30.91;102457.97;10203787;28;20124;-67
2021/04/03 11:26:06;;;;;;;4.18;1.00;;;;;;;13.67;31.00;102465.69;10208577;28;20053;-67
2021/04/03 11:31:02;;;;;;;4.97;1.08;;;;;;;13.94;30.04;102469.69;10208651;28;20054;-65
2021/04/03 11:35:58;;;;;;;4.28;1.45;;;;;;;13.67;30.70;102468.44;10208845;28;21777;-68
2021/04/03 11:40:54;;;;;;;4.00;1.20;;;;;;;13.70;30.19;102477.22;10220617;28;20081;-69
2021/04/03 11:45:50;;;;;;;3.05;1.00;;;;;;;13.51;30.03;102472.50;10218152;28;20076;-68
2021/04/03 11:50:46;;;;;;;3.95;1.20;;;;;;;12.96;30.83;102461.06;10210575;28;20061;-69
2021/04/03 11:55:42;;;;;;;5.07;1.10;;;;;;;14.62;31.88;102460.09;10212531;28;20087;-72
2021/04/03 12:00:39;;;;;;;4.70;1.00;;;;;;;14.71;31.12;102457.44;10208438;28;20133;-68
2021/04/03 12:05:35;;;;;;;4.63;1.45;;;;;;;14.97;31.22;102451.44;10206153;28;20042;-69
2021/04/03 12:10:31;;;;;;;5.05;1.30;;;;;;;14.96;28.65;102449.81;10206288;28;20064;-69
2021/04/03 12:15:27;;;;;;;2.58;0.90;;;;;;;14.67;30.99;102448.19;10215778;28;20108;-67
2021/04/03 12:20:23;;;;;;;3.20;1.10;;;;;;;14.87;28.55;102442.25;10218641;28;20139;-68
2021/04/03 12:25:19;;;;;;;5.95;1.80;;;;;;;15.35;28.44;102443.78;10216290;28;20140;-68
2021/04/03 12:30:15;;;;;;;5.53;1.70;;;;;;;15.48;25.80;102436.59;10221271;28;20160;-68
2021/04/03 12:35:12;;;;;;;5.10;1.30;;;;;;;16.47;27.68;102425.72;10219393;28;20057;-70
2021/04/03 12:40:10;;;;;;;3.72;1.05;;;;;;;17.37;25.41;102436.47;10210993;28;20050;-68
2021/04/03 12:45:09;;;;;;;3.20;0.85;;;;;;;15.59;25.64;102424.22;10220065;28;20085;-68
2021/04/03 12:50:07;;;;;;;3.28;1.10;;;;;;;14.54;27.33;102438.75;10215752;28;20041;-69
2021/04/03 12:55:04;;;;;;;4.93;1.23;;;;;;;14.29;28.01;102424.28;10201382;28;20388;-68
2021/04/03 13:00:00;;;;;;;5.25;1.88;;;;;;;14.79;27.78;102423.72;10201478;28;20050;-67
2021/04/03 13:04:56;;;;;;;4.20;1.10;;;;;;;15.84;27.41;102422.84;10221258;28;20556;-66
2021/04/03 13:09:52;;;;;;;3.85;1.10;;;;;;;16.96;31.20;102421.88;10221281;28;20045;-67
2021/04/03 13:14:49;;;;;;;2.60;0.95;;;;;;;16.86;26.66;102411.16;10207015;28;20073;-71
2021/04/03 13:19:45;;;;;;;5.28;1.20;;;;;;;16.55;25.18;102411.97;10226884;28;20743;-70
2021/04/03 13:24:41;;;;;;;3.08;1.23;;;;;;;15.35;27.03;102414.28;10208263;28;20050;-74
2021/04/03 13:29:37;;;;;;;3.80;1.00;;;;;;;14.49;27.76;102406.59;10223708;28;20076;-67
2021/04/03 13:34:33;;;;;;;3.80;1.10;;;;;;;13.98;28.85;102404.75;10217610;28;20052;-67
2021/04/03 13:39:29;;;;;;;3.67;1.80;;;;;;;14.80;28.80;102397.78;10210578;28;20071;-67
2021/04/03 13:44:25;;;;;;;8.80;1.70;;;;;;;14.45;29.99;102391.81;10219996;28;20487;-66
2021/04/03 13:49:21;;;;;;;4.70;1.20;;;;;;;13.97;28.52;102386.63;10220274;28;20069;-69
2021/04/03 13:54:17;;;;;;;5.20;1.70;;;;;;;14.20;28.89;102378.50;10226784;28;20418;-67
2021/04/03 13:59:14;;;;;;;3.55;1.42;;;;;;;13.73;29.39;102386.72;10222002;28;20046;-66
2021/04/03 14:04:10;;;;;;;5.95;1.90;;;;;;;13.90;29.26;102391.66;10222590;28;20135;-67
2021/04/03 14:09:06;;;;;;;6.00;2.88;;;;;;;14.01;29.98;102387.63;10215244;28;20053;-67
2021/04/03 14:14:02;;;;;;;4.18;2.10;;;;;;;13.62;30.74;102390.72;10219959;28;20053;-69
2021/04/03 14:18:58;;;;;;;4.40;1.23;;;;;;;13.97;29.63;102381.13;10215720;28;20045;-66
2021/04/03 14:23:54;;;;;;;5.45;1.67;;;;;;;14.24;29.16;102374.06;10223274;28;20128;-68
2021/04/03 14:28:50;;;;;;;4.65;1.92;;;;;;;14.68;28.87;102378.22;10218330;28;20423;-66
2021/04/03 14:33:46;;;;;;;5.38;2.05;;;;;;;13.99;29.24;102378.84;10215025;28;20057;-67
2021/04/03 14:38:42;;;;;;;3.95;1.63;;;;;;;13.91;30.67;102382.31;10218314;28;20500;-67
2021/04/03 14:43:38;;;;;;;5.65;2.45;;;;;;;13.67;31.04;102383.22;10219868;28;20049;-66
2021/04/03 14:48:35;;;;;;;6.97;2.20;;;;;;;13.52;31.01;102375.22;10212550;28;20060;-67
2021/04/03 14:53:31;;;;;;;9.95;3.70;;;;;;;13.16;30.43;102361.13;10222660;28;20099;-67
2021/04/03 14:58:28;;;;;;;7.40;3.45;;;;;;;13.06;33.37;102351.09;10216242;28;20054;-66
2021/04/03 15:03:26;;;;;;;9.20;2.63;;;;;;;13.10;30.98;102357.63;10213834;28;20466;-67
2021/04/03 15:08:23;;;;;;;6.90;2.80;;;;;;;13.44;32.65;102345.66;10214713;28;20612;-68
2021/04/03 15:13:19;;;;;;;6.05;2.33;;;;;;;13.15;30.57;102349.31;10220809;28;20082;-67
2021/04/03 15:18:15;;;;;;;5.43;1.83;;;;;;;12.88;31.26;102344.47;10214334;28;20057;-66
2021/04/03 15:23:11;;;;;;;5.22;2.10;;;;;;;12.40;31.91;102356.25;10223179;28;20053;-67
2021/04/03 15:28:09;;;;;;;7.22;2.33;;;;;;;12.82;31.38;102346.44;10217033;28;20079;-69
2021/04/03 15:33:05;;;;;;;5.82;2.30;;;;;;;12.88;31.95;102349.13;10217275;28;20053;-68
2021/04/03 15:38:01;;;;;;;6.88;2.75;;;;;;;12.49;31.95;102344.66;10221474;28;20057;-68
2021/04/03 15:42:57;;;;;;;6.80;3.17;;;;;;;12.73;32.11;102348.22;10222605;28;20045;-68
2021/04/03 15:47:54;;;;;;;5.13;2.08;;;;;;;12.36;31.33;102344.22;10222340;28;20408;-66
2021/04/03 15:52:50;;;;;;;3.75;1.52;;;;;;;13.28;30.13;102352.50;10215507;28;20057;-70
2021/04/03 15:57:46;;;;;;;5.53;2.28;;;;;;;14.36;30.11;102346.84;10214343;28;20085;-70
2021/04/03 16:02:42;;;;;;;21.50;9.88;;;;;;;14.30;35.99;102348.09;10217734;28;20045;-67
2021/04/03 16:07:38;;;;;;;19.52;7.43;;;;;;;13.65;39.00;102346.97;10212606;28;20073;-67
2021/04/03 16:12:34;;;;;;;20.77;7.82;;;;;;;13.87;39.55;102351.03;10216446;28;20069;-66
2021/04/03 16:17:31;;;;;;;25.52;10.65;;;;;;;14.05;40.07;102343.84;10217627;28;20057;-67
2021/04/03 16:22:26;;;;;;;19.90;8.00;;;;;;;14.29;39.05;102343.69;10207608;28;20047;-66
2021/04/03 16:27:22;;;;;;;19.35;6.25;;;;;;;14.73;38.97;102343.13;10214834;28;20049;-74
2021/04/03 16:32:18;;;;;;;20.17;6.72;;;;;;;14.34;38.95;102346.34;10213073;28;20050;-69
2021/04/03 16:37:14;;;;;;;22.25;9.38;;;;;;;14.24;38.79;102336.34;10206327;28;20050;-69
2021/04/03 16:42:11;;;;;;;18.73;6.07;;;;;;;14.03;40.61;102335.91;10214074;28;20050;-68
2021/04/03 16:47:07;;;;;;;22.85;8.60;;;;;;;14.52;40.29;102326.16;10212120;28;20098;-67
2021/04/03 16:52:03;;;;;;;17.50;6.30;;;;;;;13.91;41.19;102337.50;10214905;28;20053;-66
2021/04/03 16:57:00;;;;;;;19.77;6.75;;;;;;;13.51;42.26;102332.38;10215589;28;20050;-69
2021/04/03 17:01:56;;;;;;;24.50;9.05;;;;;;;13.72;42.34;102329.31;10208902;28;20041;-70
2021/04/03 17:06:53;;;;;;;27.05;9.63;;;;;;;12.51;44.90;102339.66;10215856;28;20077;-72
2021/04/03 17:11:49;;;;;;;24.20;9.48;;;;;;;12.46;44.90;102342.47;10219794;28;20078;-67
2021/04/03 17:16:46;;;;;;;22.85;8.82;;;;;;;12.17;44.54;102335.09;10208281;28;20100;-67
2021/04/03 17:21:42;;;;;;;22.70;7.43;;;;;;;11.87;45.34;102337.00;10208538;28;20169;-66
2021/04/03 17:26:38;;;;;;;25.85;9.23;;;;;;;11.95;44.86;102338.31;10210834;28;20095;-68
2021/04/03 17:31:34;;;;;;;29.80;10.23;;;;;;;11.06;48.83;102355.59;10213131;28;20049;-67
2021/04/03 17:36:31;;;;;;;26.08;9.13;;;;;;;10.67;50.76;102358.19;10207435;28;20055;-69
2021/04/03 17:41:27;;;;;;;22.85;8.32;;;;;;;10.52;51.19;102367.28;10217622;28;20204;-70
2021/04/03 17:46:23;;;;;;;31.52;9.38;;;;;;;10.48;51.98;102366.19;10217556;28;20123;-66
2021/04/03 17:51:20;;;;;;;23.80;7.88;;;;;;;9.80;54.59;102377.41;10214096;28;20423;-67
2021/04/03 17:56:17;;;;;;;24.33;7.40;;;;;;;9.33;55.36;102384.69;10213853;28;20069;-73
2021/04/03 18:01:13;;;;;;;32.75;10.20;;;;;;;9.34;54.67;102391.78;10222331;28;20103;-68
2021/04/03 18:06:09;;;;;;;31.38;10.35;;;;;;;8.93;55.65;102388.91;10221606;28;20099;-67
2021/04/03 18:11:05;;;;;;;32.17;10.45;;;;;;;9.13;55.24;102393.63;10224600;28;20056;-69
2021/04/03 18:16:01;;;;;;;32.90;11.70;;;;;;;9.08;55.60;102401.00;10221248;28;20530;-69
2021/04/03 18:20:58;;;;;;;37.65;11.48;;;;;;;8.86;56.48;102412.88;10220474;28;20133;-70
2021/04/03 18:25:54;;;;;;;27.98;9.18;;;;;;;8.54;54.88;102416.50;10222675;28;20107;-70
2021/04/03 18:30:50;;;;;;;29.00;11.52;;;;;;;8.35;56.38;102417.97;10227640;28;20222;-65
2021/04/03 18:35:46;;;;;;;41.13;12.73;;;;;;;8.31;57.31;102411.38;10215163;28;20057;-67
2021/04/03 18:40:43;;;;;;;35.13;12.50;;;;;;;7.96;59.36;102420.91;10222656;28;20045;-71
2021/04/03 18:45:39;;;;;;;41.00;13.25;;;;;;;7.94;60.00;102423.09;10219952;28;20091;-67
2021/04/03 18:50:38;;;;;;;46.78;15.10;;;;;;;7.76;61.58;102427.81;10209801;28;20073;-67
2021/04/03 18:55:34;;;;;;;50.17;14.50;;;;;;;7.84;61.81;102434.69;10197793;28;20385;-68
2021/04/03 19:00:32;;;;;;;37.03;14.02;;;;;;;7.92;61.56;102430.69;10201726;28;20871;-71
2021/04/03 19:05:28;;;;;;;35.35;11.20;;;;;;;7.47;62.71;102434.56;10215893;28;20050;-67
2021/04/03 19:10:24;;;;;;;34.55;10.25;;;;;;;7.54;62.36;102429.75;10201822;28;20053;-67
2021/04/03 19:15:21;;;;;;;25.25;8.50;;;;;;;7.50;62.13;102434.06;10206453;28;20072;-67
2021/04/03 19:20:17;;;;;;;30.58;9.68;;;;;;;7.36;62.39;102436.38;10217452;28;20107;-71
2021/04/03 19:25:13;;;;;;;24.08;9.63;;;;;;;7.58;61.94;102430.88;10207081;28;20123;-71
2021/04/03 19:30:10;;;;;;;33.65;12.18;;;;;;;7.37;62.85;102438.00;10206587;28;21448;-66
2021/04/03 19:35:07;;;;;;;35.85;12.73;;;;;;;7.65;62.31;102442.38;10215756;28;20057;-69
2021/04/03 19:40:04;;;;;;;33.38;12.57;;;;;;;7.53;63.08;102439.00;10219224;28;20080;-69
2021/04/03 19:45:00;;;;;;;33.85;13.73;;;;;;;7.27;64.73;102446.03;10212351;28;20388;-65
2021/04/03 19:49:56;;;;;;;42.90;16.60;;;;;;;7.00;66.82;102440.50;10206266;28;20100;-70
2021/04/03 19:54:52;;;;;;;48.63;16.38;;;;;;;7.03;66.97;102434.56;10204975;28;20049;-65
2021/04/03 19:59:49;;;;;;;40.70;13.90;;;;;;;7.16;66.51;102436.91;10206201;28;20045;-66
2021/04/03 20:04:47;;;;;;;40.03;16.20;;;;;;;7.14;66.98;102434.44;10200312;28;20045;-66
2021/04/03 20:09:42;;;;;;;45.80;14.77;;;;;;;6.93;67.61;102436.06;10203955;28;20072;-65
2021/04/03 20:14:38;;;;;;;39.15;15.68;;;;;;;7.03;67.38;102435.41;10204686;28;20045;-69
2021/04/03 20:19:35;;;;;;;33.25;14.73;;;;;;;6.93;67.91;102436.06;10198030;28;20041;-65
2021/04/03 20:24:31;;;;;;;34.38;13.20;;;;;;;6.84;68.44;102432.13;10220449;28;20747;-66
2021/04/03 20:29:27;;;;;;;52.63;14.52;;;;;;;6.66;69.17;102437.84;10208253;28;20671;-66
2021/04/03 20:34:23;;;;;;;29.25;13.13;;;;;;;6.51;69.56;102433.84;10206465;28;20045;-71
2021/04/03 20:39:20;;;;;;;32.08;13.32;;;;;;;6.72;68.91;102440.41;10210893;28;20611;-67
2021/04/03 20:44:16;;;;;;;39.25;14.27;;;;;;;6.49;70.07;102446.84;10218333;28;20064;-68
2021/04/03 20:49:12;;;;;;;39.53;15.90;;;;;;;6.44;70.34;102438.63;10196819;28;20788;-70
2021/04/03 20:54:09;;;;;;;34.20;14.73;;;;;;;6.42;70.64;102429.91;10219542;28;20057;-72
2021/04/03 20:59:05;;;;;;;42.40;15.68;;;;;;;6.25;71.51;102434.53;10208044;28;20068;-69
2021/04/03 21:04:01;;;;;;;41.65;16.83;;;;;;;6.12;72.23;102435.66;10199782;28;20126;-66
2021/04/03 21:08:57;;;;;;;38.17;15.00;;;;;;;6.11;72.24;102440.25;10206450;28;20107;-69
2021/04/03 21:13:53;;;;;;;39.85;14.82;;;;;;;6.15;72.02;102434.34;10219069;28;20440;-68
2021/04/03 21:18:49;;;;;;;37.60;15.68;;;;;;;5.97;72.73;102428.06;10202333;28;20046;-69
2021/04/03 21:23:45;;;;;;;33.70;14.80;;;;;;;6.01;72.89;102429.25;10203948;28;20058;-65
2021/04/03 21:28:42;;;;;;;42.30;18.52;;;;;;;6.05;72.44;102424.94;10210335;28;20073;-66
2021/04/03 21:33:39;;;;;;;31.33;15.45;;;;;;;6.07;71.86;102422.81;10213694;28;20539;-71
2021/04/03 21:38:35;;;;;;;36.53;16.30;;;;;;;5.98;72.61;102428.91;10205722;28;20054;-68
2021/04/03 21:43:32;;;;;;;39.88;14.85;;;;;;;5.99;73.03;102412.38;10213897;28;20380;-68
2021/04/03 21:48:28;;;;;;;37.30;14.88;;;;;;;6.06;72.76;102415.75;10202572;28;20447;-68
2021/04/03 21:53:26;;;;;;;29.23;13.25;;;;;;;5.98;72.93;102415.31;10204295;28;20049;-65
2021/04/03 21:58:22;;;;;;;32.75;11.65;;;;;;;5.93;73.35;102405.16;10202598;28;20091;-67
2021/04/03 22:03:19;;;;;;;38.25;12.52;;;;;;;5.82;73.40;102412.28;10208250;28;20440;-69
2021/04/03 22:08:16;;;;;;;36.63;14.52;;;;;;;5.73;73.88;102421.06;10214663;28;21450;-70
2021/04/03 22:13:13;;;;;;;30.52;11.32;;;;;;;5.87;72.78;102411.56;10214598;28;20507;-66
2021/04/03 22:18:10;;;;;;;34.65;10.90;;;;;;;5.96;72.25;102414.72;10208973;28;20136;-66
2021/04/03 22:23:06;;;;;;;36.85;13.82;;;;;;;5.91;72.48;102408.09;10220631;28;20092;-67
2021/04/03 22:28:04;;;;;;;33.65;12.48;;;;;;;5.87;72.49;102400.69;10222125;28;20508;-66
2021/04/03 22:33:01;;;;;;;31.92;11.10;;;;;;;5.95;73.09;102403.06;10217903;28;20192;-66
2021/04/03 22:37:57;;;;;;;31.08;10.27;;;;;;;5.94;73.56;102401.44;10218744;28;20041;-65
2021/04/03 22:42:54;;;;;;;32.28;11.02;;;;;;;6.11;72.48;102407.69;10218322;28;20071;-66
2021/04/03 22:48:01;;;;;;;33.40;12.95;;;;;;;5.96;72.97;102404.69;10212957;28;20046;-68